Time;durP1;ratioP1;P1;durP2;ratioP2;P2;SDS_P1;SDS_P2;PMS_P1;PMS_P2;Temp;Humidity;BMP_temperature;BMP_pressure;BME280_temperature;BME280_humidity;BME280_pressure;Samples;Min_cycle;Max_cycle;Signal;HPM_P1;HPM_P2
2022/07/25 00:01:10;;;;;;;7.53;6.93;;;;;;;23.17;59.26;101192.00;6169025;28;20659;-72
2022/07/25 00:04:31;;;;;;;8.38;7.47;;;;;;;23.15;59.27;101185.88;6170708;28;20230;-71
2022/07/25 00:07:54;;;;;;;8.43;7.68;;;;;;;23.09;59.17;101182.06;6170818;28;20557;-72
2022/07/25 00:11:15;;;;;;;6.97;6.47;;;;;;;23.00;59.29;101181.44;6167872;28;20330;-71
2022/07/25 00:14:36;;;;;;;6.97;6.28;;;;;;;22.85;59.50;101179.91;6171219;28;20237;-72
2022/07/25 00:17:57;;;;;;;7.63;7.03;;;;;;;23.07;58.84;101175.94;6169173;28;20312;-70
2022/07/25 00:21:18;;;;;;;6.88;6.38;;;;;;;22.90;59.08;101171.88;6167701;28;20233;-71
2022/07/25 00:24:40;;;;;;;6.70;6.10;;;;;;;22.80;58.83;101175.03;6167572;28;20230;-71
2022/07/25 00:28:01;;;;;;;7.25;6.65;;;;;;;22.49;59.52;101173.88;6165555;28;20626;-70
2022/07/25 00:31:22;;;;;;;8.43;7.57;;;;;;;22.80;59.56;101176.94;6163998;28;20251;-71
2022/07/25 00:34:43;;;;;;;6.85;6.32;;;;;;;22.75;59.07;101180.31;6174359;28;20238;-71
2022/07/25 00:38:04;;;;;;;8.20;7.47;;;;;;;22.89;59.10;101164.69;6182741;28;20313;-72
2022/07/25 00:41:26;;;;;;;7.68;6.93;;;;;;;22.81;58.55;101162.97;6172359;28;20325;-72
2022/07/25 00:44:47;;;;;;;7.45;6.85;;;;;;;22.57;59.44;101165.44;6171825;28;20237;-72
2022/07/25 00:48:09;;;;;;;8.10;7.40;;;;;;;22.78;58.81;101168.88;6166958;28;20249;-71
2022/07/25 00:51:30;;;;;;;9.32;8.13;;;;;;;22.94;59.48;101164.91;6173332;28;20225;-70
2022/07/25 00:54:51;;;;;;;8.45;7.22;;;;;;;22.75;59.18;101162.97;6172334;28;20234;-72
2022/07/25 00:58:14;;;;;;;6.88;6.28;;;;;;;22.84;58.81;101159.81;6170430;28;20231;-71
2022/07/25 01:01:36;;;;;;;6.43;5.82;;;;;;;22.80;59.06;101149.44;6170862;28;21013;-72
2022/07/25 01:04:57;;;;;;;6.68;6.18;;;;;;;22.73;58.64;101160.44;6175888;28;20680;-71
2022/07/25 01:08:20;;;;;;;6.90;6.40;;;;;;;22.80;59.36;101142.03;6168620;28;20226;-71
2022/07/25 01:11:40;;;;;;;7.60;7.00;;;;;;;22.73;59.66;101143.09;6167690;28;20703;-70
2022/07/25 01:15:03;;;;;;;18.90;6.85;;;;;;;22.64;59.28;101149.81;6168722;28;20460;-71
2022/07/25 01:18:24;;;;;;;7.13;6.43;;;;;;;22.62;59.65;101149.19;6165460;28;20746;-71
2022/07/25 01:21:46;;;;;;;6.68;6.05;;;;;;;22.66;58.99;101145.81;6165737;28;20584;-71
2022/07/25 01:25:08;;;;;;;7.10;6.60;;;;;;;22.29;59.82;101143.56;6171872;28;20233;-70
2022/07/25 01:28:29;;;;;;;8.13;7.03;;;;;;;22.40;59.98;101145.72;6170779;28;20491;-71
2022/07/25 01:31:50;;;;;;;7.32;6.82;;;;;;;22.35;60.71;101137.25;6175275;28;20749;-72
2022/07/25 01:35:12;;;;;;;7.85;7.03;;;;;;;22.32;59.65;101139.56;6160669;28;20386;-71
2022/07/25 01:38:34;;;;;;;7.18;6.47;;;;;;;22.33;60.28;101122.88;6164835;28;20221;-70
2022/07/25 01:41:55;;;;;;;7.20;6.70;;;;;;;22.18;60.18;101128.53;6171513;28;20257;-71
2022/07/25 01:45:16;;;;;;;8.10;7.40;;;;;;;22.14;60.08;101124.50;6171568;28;20623;-71
2022/07/25 01:48:37;;;;;;;7.70;7.00;;;;;;;22.08;60.29;101116.22;6163826;28;20312;-71
2022/07/25 01:51:58;;;;;;;8.30;6.88;;;;;;;22.18;59.89;101127.66;6169257;28;20229;-71
2022/07/25 01:55:20;;;;;;;7.68;7.10;;;;;;;22.26;60.19;101122.84;6167876;28;20230;-71
2022/07/25 01:58:41;;;;;;;7.10;6.53;;;;;;;21.97;60.35;101114.91;6168217;28;20234;-72
2022/07/25 02:02:03;;;;;;;7.68;6.75;;;;;;;21.95;61.22;101114.25;6162052;28;20234;-71
2022/07/25 02:05:24;;;;;;;6.95;6.38;;;;;;;21.79;60.73;101106.34;6165783;28;20226;-71
2022/07/25 02:08:45;;;;;;;7.90;7.20;;;;;;;21.93;60.38;101102.63;6166636;28;20237;-72
2022/07/25 02:12:08;;;;;;;7.60;6.75;;;;;;;22.03;60.29;101094.00;6166832;28;20322;-72
2022/07/25 02:15:29;;;;;;;6.60;6.00;;;;;;;21.86;59.85;101095.44;6162680;28;20234;-71
2022/07/25 02:18:50;;;;;;;6.88;6.43;;;;;;;21.71;59.66;101087.31;6164214;28;20237;-71
2022/07/25 02:22:11;;;;;;;6.72;6.10;;;;;;;21.93;59.74;101079.81;6165641;28;20234;-72
2022/07/25 02:25:31;;;;;;;7.03;6.38;;;;;;;21.80;58.82;101086.06;6169297;28;20226;-71
2022/07/25 02:28:54;;;;;;;6.55;6.00;;;;;;;21.51;59.68;101066.28;6168658;28;20833;-71
2022/07/25 02:32:14;;;;;;;6.85;6.35;;;;;;;21.51;59.48;101066.28;6165660;28;20221;-71
2022/07/25 02:35:35;;;;;;;7.93;5.82;;;;;;;21.83;58.88;101060.13;6162924;28;20230;-71
2022/07/25 02:38:56;;;;;;;6.65;5.68;;;;;;;21.65;58.17;101055.19;6164333;28;20249;-70
2022/07/25 02:42:18;;;;;;;5.90;5.50;;;;;;;21.77;58.21;101059.03;6165499;28;20646;-72
2022/07/25 02:45:40;;;;;;;7.75;5.82;;;;;;;22.02;57.02;101054.72;6169895;28;20648;-70
2022/07/25 02:49:02;;;;;;;5.45;5.05;;;;;;;21.61;57.44;101056.63;6160956;28;20639;-72
2022/07/25 02:52:23;;;;;;;6.30;5.68;;;;;;;21.53;57.82;101045.81;6166413;28;20515;-71
2022/07/25 02:55:44;;;;;;;6.65;5.85;;;;;;;21.36;58.03;101056.28;6167624;28;20239;-72
2022/07/25 02:59:05;;;;;;;6.05;5.47;;;;;;;21.19;57.49;101045.84;6152014;28;20246;-71
2022/07/25 03:02:28;;;;;;;5.47;5.07;;;;;;;21.37;57.40;101048.91;6165067;28;20234;-70
2022/07/25 03:05:48;;;;;;;6.10;5.07;;;;;;;21.59;56.98;101033.19;6167185;28;20229;-71
2022/07/25 03:09:10;;;;;;;4.95;4.55;;;;;;;21.46;56.73;101040.28;6166289;28;20419;-71
2022/07/25 03:12:31;;;;;;;6.20;4.43;;;;;;;21.32;56.91;101033.03;6165085;28;20241;-71
2022/07/25 03:15:52;;;;;;;5.45;4.95;;;;;;;21.44;57.06;101034.16;6163978;28;20238;-71
2022/07/25 03:19:15;;;;;;;4.80;4.40;;;;;;;21.25;56.31;101025.81;6157074;28;20225;-71
2022/07/25 03:22:36;;;;;;;4.50;4.20;;;;;;;21.46;56.65;101023.00;6168884;28;20237;-72
2022/07/25 03:25:57;;;;;;;5.55;5.05;;;;;;;21.35;56.34;101016.19;6169465;28;20226;-72
2022/07/25 03:29:18;;;;;;;4.78;4.28;;;;;;;21.54;56.37;101009.09;6173573;28;20270;-69
2022/07/25 03:32:40;;;;;;;5.78;4.88;;;;;;;21.56;55.40;101000.66;6165632;28;20238;-71
2022/07/25 03:36:03;;;;;;;5.15;4.45;;;;;;;21.39;55.74;100994.66;6165515;28;20302;-72
2022/07/25 03:39:24;;;;;;;5.38;4.78;;;;;;;21.28;55.95;100997.97;6172465;28;20732;-71
2022/07/25 03:42:44;;;;;;;4.13;3.83;;;;;;;21.39;55.40;100986.44;6169302;28;20320;-72
2022/07/25 03:46:05;;;;;;;4.85;4.28;;;;;;;21.49;55.93;100989.66;6174171;28;20752;-71
2022/07/25 03:49:26;;;;;;;5.35;4.13;;;;;;;21.62;55.04;100988.88;6170921;28;20225;-71
2022/07/25 03:52:49;;;;;;;4.30;3.90;;;;;;;21.57;54.99;100975.75;6172114;28;20234;-72
2022/07/25 03:56:10;;;;;;;4.18;3.80;;;;;;;21.46;55.18;100976.34;6171003;28;20221;-72
2022/07/25 03:59:31;;;;;;;4.80;4.40;;;;;;;21.73;54.58;100974.56;6173882;28;20237;-71
2022/07/25 04:02:52;;;;;;;4.30;3.72;;;;;;;21.44;54.71;100976.53;6170305;28;20234;-71
2022/07/25 04:06:13;;;;;;;4.35;4.05;;;;;;;21.46;54.67;100973.63;6169261;28;20609;-72
2022/07/25 04:09:35;;;;;;;6.65;4.00;;;;;;;21.48;55.06;100966.03;6171954;28;20225;-71
2022/07/25 04:12:56;;;;;;;4.25;3.92;;;;;;;21.34;54.76;100961.53;6167625;28;20245;-71
2022/07/25 04:16:18;;;;;;;4.35;3.97;;;;;;;21.32;54.33;100963.59;6166279;28;20647;-72
2022/07/25 04:19:39;;;;;;;4.50;4.10;;;;;;;21.50;54.89;100955.69;6171819;28;20234;-71
2022/07/25 04:23:00;;;;;;;3.42;2.97;;;;;;;21.48;54.59;100947.66;6172761;28;20233;-70
2022/07/25 04:26:22;;;;;;;4.43;3.28;;;;;;;21.70;53.71;100942.03;6171659;28;20222;-70
2022/07/25 04:29:43;;;;;;;4.35;3.95;;;;;;;21.75;53.48;100942.25;6173656;28;20317;-71
2022/07/25 04:33:04;;;;;;;5.05;3.90;;;;;;;21.88;52.91;100928.59;6170819;28;20234;-71
2022/07/25 04:36:26;;;;;;;5.30;4.90;;;;;;;22.01;52.92;100920.38;6167145;28;21236;-71
2022/07/25 04:39:47;;;;;;;4.72;3.53;;;;;;;21.80;54.06;100912.31;6171743;28;20234;-72
2022/07/25 04:43:10;;;;;;;4.50;3.83;;;;;;;21.97;52.28;100916.34;6170027;28;20230;-71
2022/07/25 04:46:31;;;;;;;4.57;4.15;;;;;;;21.80;53.35;100907.63;6170391;28;20225;-71
2022/07/25 04:49:52;;;;;;;4.97;3.75;;;;;;;22.24;52.98;100907.06;6168478;28;21064;-72
2022/07/25 04:53:13;;;;;;;6.80;4.38;;;;;;;22.58;52.64;100903.25;6164890;28;20238;-71
2022/07/25 04:56:34;;;;;;;5.85;3.67;;;;;;;22.63;51.48;100898.00;6171098;28;20413;-71
2022/07/25 04:59:57;;;;;;;4.45;3.47;;;;;;;22.68;51.10;100893.53;6173021;28;20229;-71
2022/07/25 05:03:18;;;;;;;3.63;3.42;;;;;;;22.81;52.14;100892.69;6165624;28;20234;-71
2022/07/25 05:06:40;;;;;;;3.72;3.40;;;;;;;22.89;51.75;100886.94;6169255;28;20229;-72
2022/07/25 05:10:00;;;;;;;5.22;3.67;;;;;;;22.90;51.92;100884.00;6167064;28;20253;-71
2022/07/25 05:13:21;;;;;;;3.42;2.83;;;;;;;22.89;51.66;100876.78;6164342;28;20229;-71
2022/07/25 05:16:44;;;;;;;4.03;3.15;;;;;;;22.75;51.29;100875.16;6162764;28;20229;-72
2022/07/25 05:20:06;;;;;;;11.50;4.07;;;;;;;22.90;52.22;100873.00;6163325;28;21854;-71
2022/07/25 05:23:26;;;;;;;4.40;3.47;;;;;;;23.09;51.86;100868.47;6167017;28;20595;-72
2022/07/25 05:26:47;;;;;;;5.43;3.55;;;;;;;22.99;52.14;100857.91;6161939;28;20508;-71
2022/07/25 05:30:10;;;;;;;3.75;3.25;;;;;;;23.07;50.99;100859.59;6168522;28;20304;-71
2022/07/25 05:33:33;;;;;;;7.28;3.78;;;;;;;23.04;52.12;100860.03;6164902;28;20230;-72
2022/07/25 05:36:55;;;;;;;5.32;3.72;;;;;;;23.10;51.52;100847.28;6164446;28;20218;-73
2022/07/25 05:40:17;;;;;;;4.00;3.70;;;;;;;23.22;51.19;100849.16;6154640;28;20229;-70
2022/07/25 05:43:38;;;;;;;7.07;4.18;;;;;;;23.16;51.11;100844.53;6158689;28;20253;-71
2022/07/25 05:46:59;;;;;;;10.35;4.72;;;;;;;23.33;51.41;100840.25;6161451;28;20237;-72
2022/07/25 05:50:22;;;;;;;4.90;3.28;;;;;;;23.29;50.92;100840.88;6173029;28;20245;-73
2022/07/25 05:53:43;;;;;;;5.50;3.80;;;;;;;23.34;50.52;100833.69;6166902;28;21252;-73
2022/07/25 05:57:05;;;;;;;6.25;3.45;;;;;;;23.50;51.02;100829.56;6171100;28;20226;-71
2022/07/25 06:00:26;;;;;;;4.15;3.72;;;;;;;23.13;50.88;100833.97;6170081;28;20234;-73
2022/07/25 06:03:47;;;;;;;6.60;3.85;;;;;;;22.84;51.62;100829.00;6177133;28;20218;-70
2022/07/25 06:07:09;;;;;;;4.70;3.90;;;;;;;23.21;50.85;100822.72;6167799;28;20229;-71
2022/07/25 06:10:30;;;;;;;4.70;3.80;;;;;;;23.52;50.34;100814.50;6162696;28;20230;-72
2022/07/25 06:13:51;;;;;;;3.95;2.80;;;;;;;23.49;50.06;100806.69;6163499;28;20329;-72
2022/07/25 06:17:12;;;;;;;12.63;4.93;;;;;;;23.74;49.83;100802.06;6164650;28;20242;-71
2022/07/25 06:20:33;;;;;;;5.70;3.53;;;;;;;23.73;49.71;100803.13;6159457;28;20230;-71
2022/07/25 06:23:55;;;;;;;5.28;3.70;;;;;;;23.70;50.23;100792.56;6161866;28;20238;-75
2022/07/25 06:27:16;;;;;;;5.43;3.22;;;;;;;23.65;51.17;100794.31;6149422;28;21009;-74
2022/07/25 06:30:37;;;;;;;6.95;4.07;;;;;;;23.97;49.49;100790.41;6158938;28;20287;-74
2022/07/25 06:33:57;;;;;;;4.60;3.17;;;;;;;23.79;50.12;100788.47;6161271;28;20242;-72
2022/07/25 06:37:18;;;;;;;3.55;3.22;;;;;;;24.07;49.53;100784.44;6165387;28;20233;-72
2022/07/25 06:40:41;;;;;;;4.88;3.33;;;;;;;24.36;49.37;100780.97;6157563;28;20790;-73
2022/07/25 06:44:02;;;;;;;5.03;3.35;;;;;;;24.38;48.90;100782.44;6167371;28;20580;-67
2022/07/25 06:47:23;;;;;;;4.32;3.63;;;;;;;24.60;47.86;100777.31;6163269;28;20221;-70
2022/07/25 06:50:45;;;;;;;4.13;3.83;;;;;;;24.57;48.26;100775.03;6164921;28;20620;-68
2022/07/25 06:54:06;;;;;;;4.78;3.35;;;;;;;24.93;47.51;100769.50;6177633;28;20249;-68
2022/07/25 06:57:28;;;;;;;3.85;3.45;;;;;;;25.08;47.66;100771.84;6160932;28;20237;-70
2022/07/25 07:00:49;;;;;;;3.67;3.00;;;;;;;24.97;47.72;100767.13;6165861;28;20233;-69
2022/07/25 07:04:10;;;;;;;4.43;4.03;;;;;;;24.85;48.35;100763.44;6164693;28;20222;-69
2022/07/25 07:07:31;;;;;;;5.30;3.80;;;;;;;24.87;49.09;100766.81;6160324;28;20265;-68
2022/07/25 07:10:52;;;;;;;4.75;3.55;;;;;;;24.74;48.81;100759.53;6164181;28;20226;-69
2022/07/25 07:14:14;;;;;;;4.05;3.75;;;;;;;24.65;48.88;100771.94;6166707;28;20614;-69
2022/07/25 07:17:35;;;;;;;3.60;3.30;;;;;;;24.93;49.08;100755.69;6168797;28;20233;-69
2022/07/25 07:20:56;;;;;;;3.92;3.63;;;;;;;25.08;48.83;100752.53;6167431;28;20233;-69
2022/07/25 07:24:17;;;;;;;4.38;3.95;;;;;;;25.32;48.69;100751.53;6177926;28;20233;-70
2022/07/25 07:27:38;;;;;;;3.85;3.55;;;;;;;25.42;48.74;100746.31;6169883;28;20230;-69
2022/07/25 07:31:01;;;;;;;4.72;3.58;;;;;;;25.59;48.19;100740.94;6172669;28;20628;-69
2022/07/25 07:34:22;;;;;;;3.53;3.22;;;;;;;25.61;48.08;100736.88;6177474;28;20947;-70
2022/07/25 07:37:43;;;;;;;3.70;3.33;;;;;;;25.75;47.84;100727.28;6172917;28;20234;-69
2022/07/25 07:41:04;;;;;;;4.03;3.63;;;;;;;25.72;48.24;100733.28;6179501;28;20225;-69
2022/07/25 07:44:25;;;;;;;7.03;4.10;;;;;;;26.00;47.76;100724.28;6180091;28;20587;-68
2022/07/25 07:47:47;;;;;;;4.65;4.25;;;;;;;26.35;47.37;100718.78;6179474;28;20743;-71
2022/07/25 07:51:09;;;;;;;6.88;4.10;;;;;;;26.53;46.73;100708.41;6177582;28;20252;-71
2022/07/25 07:58:08;;;;;;;8.85;4.55;;;;;;;26.85;46.10;100701.31;6175424;28;20538;-71
2022/07/25 08:01:30;;;;;;;6.03;5.30;;;;;;;27.08;45.30;100710.63;6172604;28;20351;-70
2022/07/25 08:04:52;;;;;;;4.85;4.45;;;;;;;27.00;45.34;100689.72;6178560;28;20694;-68
2022/07/25 08:08:15;;;;;;;4.88;4.57;;;;;;;27.18;44.41;100683.94;6159635;28;20225;-69
2022/07/25 08:11:36;;;;;;;5.90;4.50;;;;;;;27.50;43.50;100687.03;6169950;28;20253;-68
2022/07/25 08:14:57;;;;;;;5.38;4.45;;;;;;;27.80;42.87;100682.00;6165037;28;20596;-70
2022/07/25 08:18:19;;;;;;;6.60;5.40;;;;;;;27.75;43.10;100673.59;6163041;28;20242;-68
2022/07/25 08:21:41;;;;;;;6.03;4.85;;;;;;;27.88;43.24;100669.63;6173127;28;20241;-68
2022/07/25 08:25:02;;;;;;;4.93;4.50;;;;;;;27.82;43.30;100665.09;6162486;28;20241;-69
2022/07/25 08:28:23;;;;;;;5.97;5.47;;;;;;;27.88;43.48;100669.63;6170951;28;20880;-69
2022/07/25 08:31:44;;;;;;;5.70;5.20;;;;;;;28.09;42.98;100664.16;6170454;28;21001;-69
2022/07/25 08:35:05;;;;;;;5.93;5.43;;;;;;;28.30;41.80;100666.13;6179146;28;20549;-69
2022/07/25 08:38:28;;;;;;;5.45;5.03;;;;;;;28.50;41.98;100656.38;6171984;28;20250;-69
2022/07/25 08:41:49;;;;;;;5.50;5.00;;;;;;;28.67;41.41;100646.06;6169892;28;20234;-68
2022/07/25 08:45:13;;;;;;;5.40;4.95;;;;;;;28.57;41.25;100643.16;6170117;28;20237;-69
2022/07/25 08:48:34;;;;;;;5.65;4.93;;;;;;;29.09;40.67;100644.28;6175046;28;20664;-68
2022/07/25 08:51:55;;;;;;;8.55;5.72;;;;;;;29.00;41.08;100630.03;6171465;28;20233;-67
2022/07/25 08:55:20;;;;;;;5.85;5.40;;;;;;;28.90;40.63;100627.16;6176931;28;20230;-69
2022/07/25 08:58:41;;;;;;;7.30;5.25;;;;;;;29.33;40.75;100623.41;6177823;28;21175;-68
2022/07/25 09:02:05;;;;;;;5.57;5.18;;;;;;;29.66;40.26;100620.34;6173257;28;20350;-69
2022/07/25 09:05:28;;;;;;;5.40;4.93;;;;;;;29.78;40.04;100617.38;6170014;28;20226;-69
2022/07/25 09:08:54;;;;;;;4.90;4.57;;;;;;;29.76;39.59;100614.03;6171970;28;20348;-69
2022/07/25 09:12:16;;;;;;;5.47;4.97;;;;;;;29.91;37.91;100622.47;6167748;28;20681;-70
2022/07/25 09:15:41;;;;;;;7.75;5.97;;;;;;;29.59;38.55;100619.75;6173224;28;20226;-73
2022/07/25 09:19:10;;;;;;;5.78;5.25;;;;;;;29.51;38.56;100617.47;6161852;28;20257;-70
2022/07/25 09:22:31;;;;;;;7.32;5.78;;;;;;;29.65;38.65;100617.81;6172905;28;20230;-71
2022/07/25 09:25:52;;;;;;;6.40;5.75;;;;;;;29.84;38.63;100610.75;6176059;28;20237;-71
2022/07/25 09:29:20;;;;;;;6.00;5.50;;;;;;;30.10;38.16;100601.44;6170542;28;20234;-75
2022/07/25 09:32:41;;;;;;;6.10;5.50;;;;;;;30.22;37.63;100599.28;6174608;28;20325;-69
2022/07/25 09:36:10;;;;;;;6.78;5.53;;;;;;;30.23;37.40;100594.56;6174261;28;20230;-67
2022/07/25 09:39:36;;;;;;;6.35;5.25;;;;;;;30.48;37.33;100583.50;6173735;28;20232;-69
2022/07/25 09:42:57;;;;;;;5.80;5.40;;;;;;;30.37;37.38;100592.97;6175674;28;20549;-71
2022/07/25 09:46:30;;;;;;;10.30;5.70;;;;;;;30.30;37.62;100592.38;6172762;28;20246;-71
2022/07/25 09:49:52;;;;;;;7.45;6.38;;;;;;;30.79;37.15;100588.88;6178757;28;20238;-72
2022/07/25 09:53:13;;;;;;;8.90;5.85;;;;;;;30.59;36.90;100597.19;6173927;28;20237;-71
2022/07/25 09:56:34;;;;;;;6.57;6.07;;;;;;;30.66;37.36;100574.66;6175874;28;20222;-69
2022/07/25 09:59:55;;;;;;;6.00;5.07;;;;;;;30.94;37.09;100574.16;6169301;28;20751;-71
2022/07/25 10:03:24;;;;;;;6.57;5.57;;;;;;;31.13;36.40;100577.25;6168503;28;20234;-69
2022/07/25 10:06:52;;;;;;;5.75;5.35;;;;;;;30.80;36.48;100575.81;6162505;28;20319;-68
2022/07/25 10:10:25;;;;;;;5.63;5.13;;;;;;;30.77;36.53;100577.19;6163723;28;20645;-67
2022/07/25 10:13:46;;;;;;;7.63;5.25;;;;;;;30.89;36.55;100576.13;6157652;28;20265;-69
2022/07/25 10:17:08;;;;;;;6.55;5.30;;;;;;;30.84;35.88;100568.56;6164688;28;20243;-70
2022/07/25 10:20:30;;;;;;;9.35;5.25;;;;;;;31.12;35.71;100576.44;6166400;28;20229;-69
2022/07/25 10:23:59;;;;;;;7.43;6.45;;;;;;;31.24;36.06;100564.97;6169767;28;20237;-70
2022/07/25 10:27:23;;;;;;;5.82;5.30;;;;;;;31.35;35.61;100558.28;6172954;28;20222;-69
2022/07/25 10:30:44;;;;;;;5.57;5.07;;;;;;;31.17;35.54;100567.22;6172350;28;20232;-70
2022/07/25 10:34:07;;;;;;;5.47;5.03;;;;;;;31.45;35.13;100567.50;6177072;28;20317;-70
2022/07/25 10:37:31;;;;;;;7.22;6.20;;;;;;;31.11;36.17;100560.81;6170769;28;20230;-70
2022/07/25 10:40:52;;;;;;;6.72;6.05;;;;;;;31.12;36.16;100548.56;6163854;28;21561;-70
2022/07/25 10:44:15;;;;;;;6.57;4.80;;;;;;;30.97;36.72;100556.91;6171659;28;20218;-69
2022/07/25 10:47:37;;;;;;;5.32;4.93;;;;;;;31.10;36.54;100544.38;6171056;28;20229;-70
2022/07/25 10:51:02;;;;;;;6.28;4.88;;;;;;;30.89;36.35;100548.28;6172224;28;20626;-71
2022/07/25 10:54:25;;;;;;;5.70;4.78;;;;;;;30.86;36.14;100543.25;6177759;28;20241;-71
2022/07/25 10:57:46;;;;;;;6.68;6.00;;;;;;;31.05;36.83;100541.59;6171461;28;20270;-70
2022/07/25 11:01:07;;;;;;;5.32;4.93;;;;;;;31.08;36.18;100529.91;6169500;28;20233;-72
2022/07/25 11:04:29;;;;;;;6.50;5.32;;;;;;;31.18;36.26;100543.81;6180399;28;20491;-69
2022/07/25 11:07:51;;;;;;;8.85;6.45;;;;;;;31.12;36.26;100540.22;6185515;28;20226;-70
2022/07/25 11:11:14;;;;;;;6.32;5.13;;;;;;;30.55;37.18;100529.28;6167935;28;20233;-70
2022/07/25 11:14:36;;;;;;;5.93;5.35;;;;;;;30.69;36.83;100543.47;6182189;28;20354;-69
2022/07/25 11:17:57;;;;;;;6.15;5.65;;;;;;;30.53;37.33;100539.84;6183383;28;20233;-70
2022/07/25 11:21:18;;;;;;;9.73;6.38;;;;;;;30.57;37.36;100535.41;6170920;28;20222;-71
2022/07/25 11:24:40;;;;;;;6.80;6.07;;;;;;;30.62;37.38;100537.38;6179420;28;20236;-70
2022/07/25 11:28:03;;;;;;;7.35;6.03;;;;;;;30.73;37.26;100534.31;6178390;28;20237;-70
2022/07/25 11:31:24;;;;;;;6.38;5.53;;;;;;;30.78;37.12;100539.88;6180149;28;20233;-70
2022/07/25 11:34:48;;;;;;;6.38;5.80;;;;;;;31.06;36.46;100532.97;6176357;28;20620;-71
2022/07/25 11:38:14;;;;;;;6.53;5.38;;;;;;;31.23;36.04;100527.09;6172213;28;20641;-70
2022/07/25 11:41:35;;;;;;;6.13;5.55;;;;;;;31.42;36.26;100523.47;6175651;28;20238;-68
2022/07/25 11:44:57;;;;;;;9.73;5.38;;;;;;;31.91;35.92;100518.03;6182202;28;21543;-73
2022/07/25 11:48:21;;;;;;;6.47;5.78;;;;;;;32.17;35.42;100505.63;6180064;28;20925;-69
2022/07/25 11:51:42;;;;;;;7.22;5.97;;;;;;;32.36;34.72;100497.44;6183705;28;20233;-71
2022/07/25 11:55:07;;;;;;;8.38;6.63;;;;;;;31.89;35.83;100500.75;6180534;28;20245;-68
2022/07/25 11:58:28;;;;;;;8.20;5.22;;;;;;;32.41;34.74;100496.56;6170413;28;20237;-70
2022/07/25 12:01:51;;;;;;;5.82;5.20;;;;;;;32.41;33.87;100493.78;6177655;28;21007;-69
2022/07/25 12:05:14;;;;;;;5.68;5.28;;;;;;;32.49;33.27;100484.81;6178188;28;20533;-70
2022/07/25 12:08:38;;;;;;;6.03;5.45;;;;;;;32.35;33.80;100486.56;6175241;28;20336;-71
2022/07/25 12:12:03;;;;;;;5.75;5.20;;;;;;;32.06;33.94;100483.66;6172719;28;21810;-70
2022/07/25 12:15:26;;;;;;;5.28;4.78;;;;;;;32.58;32.68;100485.88;6166135;28;20679;-69
2022/07/25 12:18:48;;;;;;;5.05;4.75;;;;;;;32.69;31.91;100465.13;6173731;28;20599;-70
2022/07/25 12:22:09;;;;;;;6.25;5.65;;;;;;;32.58;32.72;100481.13;6174454;28;20230;-73
2022/07/25 12:25:30;;;;;;;6.18;5.65;;;;;;;33.14;31.93;100461.09;6179354;28;20261;-70
2022/07/25 12:28:51;;;;;;;6.28;5.72;;;;;;;33.20;31.78;100466.34;6174971;28;20325;-70
2022/07/25 12:32:12;;;;;;;6.50;5.10;;;;;;;32.68;32.93;100460.66;6172111;28;20246;-68
2022/07/25 12:35:36;;;;;;;7.30;5.13;;;;;;;32.58;32.58;100466.34;6173888;28;20229;-72
2022/07/25 12:38:57;;;;;;;8.90;4.82;;;;;;;32.23;32.98;100467.41;6174489;28;20222;-71
2022/07/25 12:42:17;;;;;;;6.25;5.65;;;;;;;32.45;32.99;100469.75;6174282;28;20242;-68
2022/07/25 12:45:41;;;;;;;6.68;6.05;;;;;;;32.39;32.89;100473.69;6177221;28;20233;-70
2022/07/25 12:49:02;;;;;;;6.38;5.80;;;;;;;32.19;33.54;100466.28;6165186;28;20558;-70
2022/07/25 12:52:25;;;;;;;6.43;5.85;;;;;;;31.82;34.47;100474.25;6161767;28;20226;-69
2022/07/25 12:55:46;;;;;;;5.47;4.80;;;;;;;31.88;34.75;100473.09;6168698;28;20635;-72
2022/07/25 12:59:07;;;;;;;6.10;5.60;;;;;;;31.29;35.61;100485.00;6176314;28;20984;-72
2022/07/25 13:02:28;;;;;;;6.03;5.40;;;;;;;31.22;35.67;100475.25;6175549;28;20234;-71
2022/07/25 13:05:51;;;;;;;6.72;5.20;;;;;;;30.88;35.60;100469.47;6170461;28;20234;-71
2022/07/25 13:09:14;;;;;;;5.60;5.10;;;;;;;30.83;36.35;100475.00;6174169;28;20245;-70
2022/07/25 13:12:35;;;;;;;6.43;5.75;;;;;;;31.07;35.70;100464.97;6170705;28;20313;-72
2022/07/25 13:15:56;;;;;;;7.78;5.30;;;;;;;31.78;35.09;100465.63;6171036;28;20578;-70
2022/07/25 13:19:17;;;;;;;6.13;5.63;;;;;;;32.79;33.92;100468.69;6163196;28;20237;-69
2022/07/25 13:22:38;;;;;;;6.43;5.93;;;;;;;31.97;35.12;100475.06;6167858;28;22154;-68
2022/07/25 13:26:00;;;;;;;5.93;5.40;;;;;;;31.68;35.43;100468.47;6175219;28;20646;-71
2022/07/25 13:29:21;;;;;;;10.52;5.88;;;;;;;31.54;35.83;100484.16;6166769;28;20245;-69
2022/07/25 13:32:43;;;;;;;7.03;6.10;;;;;;;31.22;36.41;100464.97;6168150;28;20229;-70
2022/07/25 13:36:04;;;;;;;7.72;5.85;;;;;;;31.27;37.03;100461.34;6168103;28;20609;-71
2022/07/25 13:39:26;;;;;;;5.57;5.05;;;;;;;31.39;36.85;100464.63;6175091;28;20576;-69
2022/07/25 13:42:48;;;;;;;5.53;5.15;;;;;;;31.66;36.42;100453.97;6164528;28;20226;-72
2022/07/25 13:46:09;;;;;;;6.18;5.78;;;;;;;31.45;36.25;100455.19;6180240;28;20226;-71
2022/07/25 13:49:31;;;;;;;5.60;5.20;;;;;;;31.25;37.24;100458.00;6177583;28;20225;-71
2022/07/25 13:52:52;;;;;;;6.00;5.50;;;;;;;31.36;36.52;100452.09;6175999;28;20230;-71
2022/07/25 13:56:13;;;;;;;6.13;5.63;;;;;;;31.23;37.13;100446.31;6177554;28;20258;-71
2022/07/25 13:59:35;;;;;;;5.55;5.05;;;;;;;31.07;37.94;100450.22;6178994;28;20245;-69
2022/07/25 14:02:56;;;;;;;5.78;5.30;;;;;;;31.27;37.86;100448.22;6172433;28;20241;-84
2022/07/25 14:06:17;;;;;;;6.68;6.03;;;;;;;31.40;37.82;100446.81;6170276;28;20226;-83
2022/07/25 14:09:38;;;;;;;7.15;6.32;;;;;;;31.00;37.87;100432.97;6167362;28;20246;-74
2022/07/25 14:12:59;;;;;;;6.03;5.63;;;;;;;31.61;38.37;100433.63;6167328;28;20321;-75
2022/07/25 14:16:21;;;;;;;5.78;5.38;;;;;;;31.35;39.07;100442.09;6171763;28;20234;-72
2022/07/25 14:19:42;;;;;;;6.20;5.60;;;;;;;31.08;40.00;100438.81;6175231;28;20574;-74
2022/07/25 14:23:03;;;;;;;6.65;6.05;;;;;;;30.52;41.99;100440.75;6172684;28;20233;-73
2022/07/25 14:26:27;;;;;;;8.52;5.97;;;;;;;29.85;45.43;100448.41;6171097;28;20233;-75
2022/07/25 14:29:48;;;;;;;8.85;7.18;;;;;;;29.24;47.19;100463.91;6173161;28;20234;-75
2022/07/25 14:33:10;;;;;;;7.97;6.30;;;;;;;28.70;48.32;100479.88;6179626;28;20603;-74
2022/07/25 14:36:31;;;;;;;12.70;6.93;;;;;;;28.82;48.51;100485.22;6170667;28;20910;-73
2022/07/25 14:39:52;;;;;;;8.57;6.25;;;;;;;28.57;48.43;100501.66;6172272;28;20333;-72
2022/07/25 14:43:13;;;;;;;7.20;5.95;;;;;;;28.30;48.99;100508.03;6172938;28;20230;-73
2022/07/25 14:46:34;;;;;;;6.15;5.13;;;;;;;27.67;50.07;100521.63;6175110;28;20249;-74
2022/07/25 14:49:57;;;;;;;6.63;5.88;;;;;;;27.42;49.86;100544.28;6170302;28;20238;-74
2022/07/25 14:53:18;;;;;;;7.00;5.78;;;;;;;27.05;50.72;100550.56;6172292;28;20620;-72
2022/07/25 14:56:39;;;;;;;5.80;5.28;;;;;;;26.99;50.78;100552.44;6172941;28;20237;-75
2022/07/25 15:00:00;;;;;;;7.15;5.68;;;;;;;26.59;51.80;100558.06;6176047;28;20229;-71
2022/07/25 15:03:22;;;;;;;8.20;5.10;;;;;;;26.70;52.33;100559.06;6166039;28;20230;-74
2022/07/25 15:06:44;;;;;;;7.25;4.80;;;;;;;26.31;52.97;100562.72;6172669;28;20245;-74
2022/07/25 15:10:07;;;;;;;5.55;5.05;;;;;;;26.33;53.16;100582.69;6177078;28;20230;-73
2022/07/25 15:13:28;;;;;;;4.55;4.18;;;;;;;26.18;53.86;100593.44;6174986;28;20245;-72
2022/07/25 15:16:49;;;;;;;4.15;3.70;;;;;;;25.84;55.08;100581.34;6170173;28;20245;-73
2022/07/25 15:20:11;;;;;;;3.72;3.38;;;;;;;25.84;55.77;100590.50;6176893;28;20229;-72
2022/07/25 15:23:33;;;;;;;4.95;4.30;;;;;;;25.42;57.33;100616.56;6171114;28;20538;-73
2022/07/25 15:26:54;;;;;;;7.35;4.63;;;;;;;24.87;58.76;100618.69;6178649;28;20230;-72
2022/07/25 15:30:15;;;;;;;5.18;4.25;;;;;;;24.61;59.84;100632.88;6162444;28;20234;-72
2022/07/25 15:33:36;;;;;;;4.97;3.03;;;;;;;24.72;59.90;100636.75;6158176;28;20229;-72
2022/07/25 15:36:57;;;;;;;6.18;4.30;;;;;;;24.41;61.08;100665.34;6166721;28;20229;-72
2022/07/25 15:40:19;;;;;;;6.28;4.25;;;;;;;24.24;62.98;100667.06;6172838;28;20234;-75